Time;durP1;ratioP1;P1;durP2;ratioP2;P2;SDS_P1;SDS_P2;PMS_P1;PMS_P2;Temp;Humidity;BMP_temperature;BMP_pressure;BME280_temperature;BME280_humidity;BME280_pressure;Samples;Min_cycle;Max_cycle;Signal;HPM_P1;HPM_P2
2022/11/12 00:00:27;;;;;;;22.73;12.13;;;;;;;;;;6219584;23;20048;-69
2022/11/12 00:02:53;;;;;;;23.80;12.20;;;;;;;;;;6219714;23;20016;-69
2022/11/12 00:05:19;;;;;;;18.77;11.80;;;;;;;;;;6219599;23;20054;-69
2022/11/12 00:07:45;;;;;;;26.63;12.65;;;;;;;;;;6219406;22;20012;-69
2022/11/12 00:10:11;;;;;;;24.35;12.93;;;;;;;;;;6219771;23;20016;-69
2022/11/12 00:12:37;;;;;;;22.70;11.95;;;;;;;;;;6246694;23;20091;-69
2022/11/12 00:15:03;;;;;;;23.70;12.90;;;;;;;;;;6219500;23;20013;-69
2022/11/12 00:17:29;;;;;;;24.92;13.13;;;;;;;;;;6204949;23;20017;-69
2022/11/12 00:19:55;;;;;;;25.52;12.85;;;;;;;;;;6186392;23;20074;-69
2022/11/12 00:22:22;;;;;;;22.23;11.50;;;;;;;;;;6184335;23;20021;-69
2022/11/12 00:24:48;;;;;;;27.20;12.95;;;;;;;;;;6184465;23;20021;-69
2022/11/12 00:27:14;;;;;;;27.73;13.32;;;;;;;;;;6184374;23;20021;-69
2022/11/12 00:29:40;;;;;;;24.00;13.10;;;;;;;;;;6185959;23;20044;-69
2022/11/12 00:32:06;;;;;;;24.50;11.90;;;;;;;;;;6183975;23;20013;-69
2022/11/12 00:34:33;;;;;;;19.45;12.05;;;;;;;;;;6184226;23;20058;-69
2022/11/12 00:36:59;;;;;;;19.08;11.65;;;;;;;;;;6184035;23;20017;-69
2022/11/12 00:39:25;;;;;;;23.48;12.02;;;;;;;;;;6185831;23;20013;-69
2022/11/12 00:41:51;;;;;;;20.42;11.55;;;;;;;;;;6185716;23;20017;-69
2022/11/12 00:44:17;;;;;;;20.75;12.40;;;;;;;;;;6184270;23;20486;-69
2022/11/12 00:46:43;;;;;;;21.17;12.32;;;;;;;;;;6185604;23;20104;-69
2022/11/12 00:49:10;;;;;;;23.95;12.65;;;;;;;;;;6183799;23;20438;-69
2022/11/12 00:51:36;;;;;;;22.50;12.80;;;;;;;;;;6186007;23;20013;-69
2022/11/12 00:54:02;;;;;;;25.25;13.25;;;;;;;;;;6184227;23;20013;-69
2022/11/12 00:56:28;;;;;;;24.23;12.02;;;;;;;;;;6186024;23;20017;-69
2022/11/12 00:58:54;;;;;;;30.70;12.65;;;;;;;;;;6183893;23;20446;-69
2022/11/12 01:01:20;;;;;;;22.10;12.00;;;;;;;;;;6183983;23;20021;-69
2022/11/12 01:03:46;;;;;;;19.85;11.82;;;;;;;;;;6185627;23;20048;-69
2022/11/12 01:06:17;;;;;;;20.83;12.25;;;;;;;;;;6184037;23;20079;-69
2022/11/12 01:08:43;;;;;;;24.58;12.10;;;;;;;;;;6185601;23;20088;-69
2022/11/12 01:11:10;;;;;;;20.50;12.10;;;;;;;;;;6183866;23;20020;-69
2022/11/12 01:13:37;;;;;;;19.45;11.93;;;;;;;;;;6183982;23;20020;-68
2022/11/12 01:16:07;;;;;;;21.95;12.05;;;;;;;;;;6183773;23;20013;-69
2022/11/12 01:18:33;;;;;;;25.08;12.93;;;;;;;;;;6186216;23;20066;-69
2022/11/12 01:21:00;;;;;;;23.95;12.38;;;;;;;;;;6218894;23;20016;-69
2022/11/12 01:23:26;;;;;;;22.27;11.88;;;;;;;;;;6218758;23;20088;-69
2022/11/12 01:25:53;;;;;;;23.27;12.80;;;;;;;;;;6245434;23;20012;-69
2022/11/12 01:28:19;;;;;;;22.58;11.85;;;;;;;;;;6245863;23;20062;-69
2022/11/12 01:30:45;;;;;;;20.40;11.70;;;;;;;;;;6218703;23;20016;-69
2022/11/12 01:33:11;;;;;;;19.55;11.77;;;;;;;;;;6245367;23;20012;-69
2022/11/12 01:35:37;;;;;;;18.63;10.68;;;;;;;;;;6218741;23;20020;-69
2022/11/12 01:38:03;;;;;;;20.00;11.38;;;;;;;;;;6245480;23;20075;-69
2022/11/12 01:40:29;;;;;;;19.30;10.98;;;;;;;;;;6218837;23;20016;-69
2022/11/12 01:42:55;;;;;;;18.40;10.55;;;;;;;;;;6218209;23;20027;-69
2022/11/12 01:45:21;;;;;;;18.88;11.30;;;;;;;;;;6218567;23;20020;-69
2022/11/12 01:47:49;;;;;;;17.55;11.43;;;;;;;;;;6218714;23;20083;-69
2022/11/12 01:50:30;;;;;;;22.48;11.27;;;;;;;;;;6218706;23;20015;-69
2022/11/12 01:52:59;;;;;;;16.95;10.48;;;;;;;;;;6245465;23;20396;-69
2022/11/12 01:55:27;;;;;;;16.17;10.43;;;;;;;;;;6245308;23;20016;-69
2022/11/12 01:57:59;;;;;;;18.25;10.43;;;;;;;;;;6218449;23;20016;-69
2022/11/12 02:00:25;;;;;;;17.92;10.15;;;;;;;;;;6245919;23;20331;-69
2022/11/12 02:02:54;;;;;;;22.83;11.18;;;;;;;;;;6245386;23;20454;-69
2022/11/12 02:05:21;;;;;;;16.70;10.15;;;;;;;;;;6245700;23;20008;-69
2022/11/12 02:07:48;;;;;;;24.70;11.63;;;;;;;;;;6218304;22;20434;-68
2022/11/12 02:10:14;;;;;;;22.98;11.77;;;;;;;;;;6193349;23;20023;-69
2022/11/12 02:15:25;;;;;;;19.17;10.80;;;;;;;;;;6218429;23;20039;-69
2022/11/12 02:17:52;;;;;;;19.23;11.38;;;;;;;;;;6218308;23;20087;-69
2022/11/12 02:20:18;;;;;;;18.77;11.13;;;;;;;;;;6218521;23;20027;-69
2022/11/12 02:22:44;;;;;;;16.35;11.00;;;;;;;;;;6245273;23;20016;-69
2022/11/12 02:25:13;;;;;;;19.60;11.90;;;;;;;;;;6193216;23;20008;-69
2022/11/12 02:27:39;;;;;;;24.73;12.85;;;;;;;;;;6245238;23;20016;-69
2022/11/12 02:30:05;;;;;;;22.27;12.15;;;;;;;;;;6245430;23;20008;-69
2022/11/12 02:32:31;;;;;;;20.45;11.93;;;;;;;;;;6218254;23;20019;-69
2022/11/12 02:34:57;;;;;;;19.38;11.35;;;;;;;;;;6245067;23;20461;-69
2022/11/12 02:37:23;;;;;;;21.08;13.20;;;;;;;;;;6245125;23;20020;-69
2022/11/12 02:39:49;;;;;;;23.65;11.85;;;;;;;;;;6245590;23;20012;-69
2022/11/12 02:42:15;;;;;;;22.85;13.85;;;;;;;;;;6245091;23;20087;-69
2022/11/12 02:44:41;;;;;;;23.30;13.35;;;;;;;;;;6218615;23;20020;-69
2022/11/12 02:47:08;;;;;;;22.27;13.38;;;;;;;;;;6245445;23;20046;-68
2022/11/12 02:49:34;;;;;;;21.27;12.20;;;;;;;;;;6245197;23;20012;-68
2022/11/12 02:52:00;;;;;;;21.30;12.73;;;;;;;;;;6193517;23;20012;-68
2022/11/12 02:54:26;;;;;;;22.67;13.32;;;;;;;;;;6218700;23;20016;-69
2022/11/12 02:56:52;;;;;;;28.02;13.93;;;;;;;;;;6247072;23;20024;-69
2022/11/12 02:59:18;;;;;;;27.52;15.52;;;;;;;;;;6247340;23;20012;-68
2022/11/12 03:01:44;;;;;;;20.40;12.05;;;;;;;;;;6195147;23;20020;-68
2022/11/12 03:04:10;;;;;;;21.45;13.57;;;;;;;;;;6220239;23;20016;-68
2022/11/12 03:06:36;;;;;;;21.08;12.38;;;;;;;;;;6220012;23;20020;-68
2022/11/12 03:09:02;;;;;;;29.00;14.40;;;;;;;;;;6247061;22;20052;-69
2022/11/12 03:11:28;;;;;;;25.80;13.65;;;;;;;;;;6246929;23;20009;-68
2022/11/12 03:13:54;;;;;;;22.35;13.70;;;;;;;;;;6246833;23;20461;-69
2022/11/12 03:16:20;;;;;;;25.52;13.68;;;;;;;;;;6247338;23;20308;-69
2022/11/12 03:18:46;;;;;;;29.10;14.63;;;;;;;;;;6189484;23;20025;-69
2022/11/12 03:21:13;;;;;;;27.38;14.35;;;;;;;;;;6160307;23;20047;-69
2022/11/12 03:23:39;;;;;;;23.63;13.38;;;;;;;;;;6185273;23;20021;-69
2022/11/12 03:26:05;;;;;;;24.65;13.70;;;;;;;;;;6184954;23;20044;-69
2022/11/12 03:28:31;;;;;;;26.00;13.52;;;;;;;;;;6184745;23;20071;-69
2022/11/12 03:30:59;;;;;;;23.00;14.07;;;;;;;;;;6160000;23;20020;-69
2022/11/12 03:33:25;;;;;;;25.77;14.50;;;;;;;;;;6186491;23;20073;-69
2022/11/12 03:35:51;;;;;;;21.27;13.48;;;;;;;;;;6184633;23;20028;-69
2022/11/12 03:38:17;;;;;;;21.33;13.75;;;;;;;;;;6184741;23;20124;-69
2022/11/12 03:40:43;;;;;;;22.10;13.50;;;;;;;;;;6186551;23;20035;-69
2022/11/12 03:43:09;;;;;;;23.92;14.02;;;;;;;;;;6184741;23;20017;-69
2022/11/12 03:45:35;;;;;;;25.88;13.15;;;;;;;;;;6184733;23;20024;-69
2022/11/12 03:48:01;;;;;;;24.95;13.48;;;;;;;;;;6186164;23;20044;-69
2022/11/12 03:50:28;;;;;;;32.85;14.45;;;;;;;;;;6159854;23;20040;-69
2022/11/12 03:52:56;;;;;;;29.48;15.02;;;;;;;;;;6184600;23;20025;-69
2022/11/12 03:55:23;;;;;;;25.33;14.25;;;;;;;;;;6184644;23;20013;-69
2022/11/12 03:57:50;;;;;;;26.85;14.30;;;;;;;;;;6186641;23;20037;-69
2022/11/12 04:00:16;;;;;;;33.72;14.82;;;;;;;;;;6186059;23;20059;-68
2022/11/12 04:02:42;;;;;;;28.05;14.93;;;;;;;;;;6186463;23;20094;-68
2022/11/12 04:10:45;;;;;;;26.13;13.10;;;;;;;;;;6184303;23;20017;-69
2022/11/12 04:13:26;;;;;;;33.75;15.30;;;;;;;;;;6186040;23;20013;-69
2022/11/12 04:27:04;;;;;;;40.25;15.50;;;;;;;;;;6219267;23;20059;-69
2022/11/12 04:32:15;;;;;;;32.28;14.95;;;;;;;;;;6246152;23;20447;-69
2022/11/12 04:34:42;;;;;;;38.78;15.48;;;;;;;;;;6246220;23;20012;-69
2022/11/12 04:37:08;;;;;;;48.67;16.88;;;;;;;;;;6246038;23;20016;-69
2022/11/12 04:39:34;;;;;;;48.35;16.40;;;;;;;;;;6194392;23;20020;-69
2022/11/12 04:45:01;;;;;;;54.58;18.67;;;;;;;;;;6219058;23;20015;-69
2022/11/12 04:47:42;;;;;;;40.17;17.50;;;;;;;;;;6245907;23;20442;-69
2022/11/12 04:50:14;;;;;;;48.25;18.55;;;;;;;;;;6219237;23;20021;-69
2022/11/12 04:52:40;;;;;;;47.17;18.40;;;;;;;;;;6219227;23;20016;-69
2022/11/12 04:55:07;;;;;;;37.78;16.30;;;;;;;;;;6219109;23;20768;-69
2022/11/12 04:57:33;;;;;;;39.03;18.10;;;;;;;;;;6194186;23;20016;-69
2022/11/12 04:59:59;;;;;;;61.83;19.08;;;;;;;;;;6193992;23;20020;-69
2022/11/12 05:02:25;;;;;;;52.50;18.75;;;;;;;;;;6194232;23;20016;-69
2022/11/12 05:04:51;;;;;;;38.58;17.52;;;;;;;;;;6218981;23;20354;-69
2022/11/12 05:07:17;;;;;;;38.88;18.00;;;;;;;;;;6245787;23;20051;-69
2022/11/12 05:09:43;;;;;;;44.95;18.38;;;;;;;;;;6218930;23;20320;-69
2022/11/12 05:12:10;;;;;;;39.83;18.38;;;;;;;;;;6219087;23;20066;-69
2022/11/12 05:14:36;;;;;;;44.10;19.40;;;;;;;;;;6218912;23;20016;-69
2022/11/12 05:17:02;;;;;;;47.95;18.35;;;;;;;;;;6245054;23;20023;-69
2022/11/12 05:19:28;;;;;;;57.53;19.08;;;;;;;;;;6218546;23;20019;-69
2022/11/12 05:22:06;;;;;;;47.22;19.55;;;;;;;;;;6218869;23;20020;-69
2022/11/12 05:24:33;;;;;;;56.72;18.88;;;;;;;;;;6218645;23;20027;-69
2022/11/12 05:26:59;;;;;;;47.65;19.90;;;;;;;;;;6245922;23;20012;-69
2022/11/12 05:29:25;;;;;;;68.97;19.60;;;;;;;;;;6218787;23;20441;-69
2022/11/12 05:31:51;;;;;;;51.83;20.60;;;;;;;;;;6218824;23;20012;-69
2022/11/12 05:34:17;;;;;;;43.22;19.50;;;;;;;;;;6218800;23;20100;-69
2022/11/12 05:36:43;;;;;;;48.28;19.63;;;;;;;;;;6245682;23;20067;-69
2022/11/12 05:39:10;;;;;;;38.75;19.63;;;;;;;;;;6218832;23;20094;-69
2022/11/12 05:41:36;;;;;;;50.33;20.67;;;;;;;;;;6219047;23;20015;-69
2022/11/12 05:44:02;;;;;;;47.45;21.00;;;;;;;;;;6193637;23;20039;-69
2022/11/12 05:46:28;;;;;;;53.40;20.70;;;;;;;;;;6218500;23;20412;-69
2022/11/12 05:48:54;;;;;;;42.47;19.42;;;;;;;;;;6218691;23;20016;-70
2022/11/12 05:51:20;;;;;;;62.58;21.55;;;;;;;;;;6245487;23;20023;-69
2022/11/12 05:53:46;;;;;;;80.50;22.02;;;;;;;;;;6218693;23;20346;-69
2022/11/12 05:56:12;;;;;;;60.20;21.30;;;;;;;;;;6218536;23;20438;-69
2022/11/12 05:58:38;;;;;;;69.63;22.80;;;;;;;;;;6218549;23;20066;-69
2022/11/12 06:01:04;;;;;;;57.97;22.60;;;;;;;;;;6245430;23;20023;-69
2022/11/12 06:03:31;;;;;;;44.97;21.95;;;;;;;;;;6218704;23;20127;-69
2022/11/12 06:05:57;;;;;;;48.28;22.25;;;;;;;;;;6193285;23;20020;-69
2022/11/12 06:08:23;;;;;;;51.75;22.50;;;;;;;;;;6218275;23;20066;-69
2022/11/12 06:10:53;;;;;;;44.75;20.60;;;;;;;;;;6245301;23;20446;-68
2022/11/12 06:13:20;;;;;;;57.28;23.92;;;;;;;;;;6218584;23;20043;-68
2022/11/12 06:15:46;;;;;;;47.42;22.08;;;;;;;;;;6245281;23;20377;-68
2022/11/12 06:18:12;;;;;;;44.63;21.33;;;;;;;;;;6173356;23;20029;-68
2022/11/12 06:20:38;;;;;;;82.20;22.92;;;;;;;;;;6185153;23;20052;-68
2022/11/12 06:23:04;;;;;;;50.40;22.23;;;;;;;;;;6184977;23;20343;-69
2022/11/12 06:25:31;;;;;;;63.38;22.95;;;;;;;;;;6184932;23;20020;-69
2022/11/12 06:27:57;;;;;;;66.07;23.25;;;;;;;;;;6184879;23;20017;-69
2022/11/12 06:30:23;;;;;;;57.38;23.33;;;;;;;;;;6184651;23;20485;-69
2022/11/12 06:32:50;;;;;;;58.30;22.42;;;;;;;;;;6183283;23;20009;-69
2022/11/12 06:35:16;;;;;;;71.25;24.63;;;;;;;;;;6183156;23;20051;-69
2022/11/12 06:37:44;;;;;;;51.55;24.40;;;;;;;;;;6158567;23;20067;-69
2022/11/12 06:40:10;;;;;;;83.07;25.75;;;;;;;;;;6183177;23;20079;-69
2022/11/12 06:42:37;;;;;;;60.70;24.85;;;;;;;;;;6183267;23;20024;-69
2022/11/12 06:45:03;;;;;;;62.33;26.08;;;;;;;;;;6185123;23;20028;-69
2022/11/12 06:47:29;;;;;;;72.38;25.60;;;;;;;;;;6183040;23;20045;-69
2022/11/12 06:49:55;;;;;;;55.95;25.80;;;;;;;;;;6183199;23;20013;-69
2022/11/12 06:52:21;;;;;;;81.38;26.45;;;;;;;;;;6183107;23;20017;-69
2022/11/12 06:54:47;;;;;;;78.78;27.02;;;;;;;;;;6183550;23;20013;-69
2022/11/12 06:57:13;;;;;;;62.75;26.58;;;;;;;;;;6183204;23;20079;-68
2022/11/12 06:59:39;;;;;;;61.80;24.95;;;;;;;;;;6183192;23;20044;-68
2022/11/12 07:02:05;;;;;;;84.63;25.95;;;;;;;;;;6183114;23;20023;-68
2022/11/12 07:04:31;;;;;;;68.93;27.25;;;;;;;;;;6183105;23;20440;-69
2022/11/12 07:06:57;;;;;;;59.88;26.25;;;;;;;;;;6184574;23;20080;-69
2022/11/12 07:09:23;;;;;;;91.72;27.08;;;;;;;;;;6182991;23;20017;-69
2022/11/12 07:11:49;;;;;;;62.00;27.15;;;;;;;;;;6184641;23;20088;-69
2022/11/12 07:14:15;;;;;;;108.18;28.35;;;;;;;;;;6183012;23;20017;-69
2022/11/12 07:16:41;;;;;;;66.88;26.17;;;;;;;;;;6185080;23;20371;-69
2022/11/12 07:19:07;;;;;;;49.95;23.92;;;;;;;;;;6214498;23;20024;-69
2022/11/12 07:21:33;;;;;;;54.60;24.77;;;;;;;;;;6218203;23;20035;-69
2022/11/12 07:23:59;;;;;;;56.75;25.33;;;;;;;;;;6245323;23;20008;-69
2022/11/12 07:26:29;;;;;;;68.20;27.08;;;;;;;;;;6217776;23;20023;-68
2022/11/12 07:28:55;;;;;;;75.95;27.35;;;;;;;;;;6218085;23;20048;-73
2022/11/12 07:31:21;;;;;;;81.00;27.75;;;;;;;;;;6217835;23;20381;-69
2022/11/12 07:33:48;;;;;;;46.22;22.15;;;;;;;;;;6244774;23;20062;-75
2022/11/12 07:36:15;;;;;;;62.30;26.60;;;;;;;;;;6218688;23;20074;-69
2022/11/12 07:38:42;;;;;;;67.55;25.58;;;;;;;;;;6217947;23;20027;-69
2022/11/12 07:41:13;;;;;;;72.68;26.95;;;;;;;;;;6245557;23;20403;-69
2022/11/12 07:43:39;;;;;;;56.10;24.92;;;;;;;;;;6219251;23;20376;-69
2022/11/12 07:46:10;;;;;;;56.58;24.33;;;;;;;;;;6220011;23;20043;-69
2022/11/12 07:48:37;;;;;;;78.60;25.02;;;;;;;;;;6220007;23;20101;-69
2022/11/12 07:51:04;;;;;;;64.97;25.58;;;;;;;;;;6219432;23;20016;-69
2022/11/12 07:53:30;;;;;;;51.00;24.40;;;;;;;;;;6194170;23;20008;-69
2022/11/12 07:55:57;;;;;;;59.95;25.20;;;;;;;;;;6219448;23;20012;-69
2022/11/12 07:58:24;;;;;;;60.90;23.98;;;;;;;;;;6219320;23;20020;-69
2022/11/12 08:00:50;;;;;;;88.25;24.90;;;;;;;;;;6246605;23;20058;-67
2022/11/12 08:03:17;;;;;;;52.95;24.15;;;;;;;;;;6219330;23;20016;-67
2022/11/12 08:05:43;;;;;;;59.58;25.40;;;;;;;;;;6245951;23;20039;-67
2022/11/12 08:08:10;;;;;;;42.08;22.05;;;;;;;;;;6219396;23;20048;-67
2022/11/12 08:10:36;;;;;;;50.63;24.50;;;;;;;;;;6246365;23;20008;-67
2022/11/12 08:13:02;;;;;;;52.05;23.38;;;;;;;;;;6219332;23;20449;-66
2022/11/12 08:15:29;;;;;;;52.42;24.35;;;;;;;;;;6218750;23;20019;-66
2022/11/12 08:17:55;;;;;;;53.22;21.98;;;;;;;;;;6202144;23;20017;-66
2022/11/12 08:20:21;;;;;;;44.10;22.67;;;;;;;;;;6183790;23;20023;-66
2022/11/12 08:22:47;;;;;;;58.33;23.02;;;;;;;;;;6185699;23;20032;-67
2022/11/12 08:25:13;;;;;;;54.25;22.42;;;;;;;;;;6185278;23;20084;-66
2022/11/12 08:27:39;;;;;;;54.70;23.23;;;;;;;;;;6185309;23;20017;-66
2022/11/12 08:30:06;;;;;;;52.83;23.67;;;;;;;;;;6183578;23;20013;-66
2022/11/12 08:32:32;;;;;;;48.47;22.88;;;;;;;;;;6183022;23;20013;-67
2022/11/12 08:34:58;;;;;;;51.00;23.00;;;;;;;;;;6185301;23;20440;-66
2022/11/12 08:37:24;;;;;;;58.40;23.35;;;;;;;;;;6185329;23;20020;-66
2022/11/12 08:39:50;;;;;;;49.45;22.45;;;;;;;;;;6185745;23;20321;-66
2022/11/12 08:42:16;;;;;;;43.75;22.05;;;;;;;;;;6185290;23;20017;-66
2022/11/12 08:44:42;;;;;;;53.92;21.33;;;;;;;;;;6186345;23;20017;-66
2022/11/12 08:47:08;;;;;;;47.92;21.85;;;;;;;;;;6184881;23;20336;-66
2022/11/12 08:49:35;;;;;;;44.78;22.75;;;;;;;;;;6186601;23;20013;-66
2022/11/12 08:52:01;;;;;;;46.55;21.40;;;;;;;;;;6186410;23;20024;-66
2022/11/12 08:54:27;;;;;;;43.85;22.42;;;;;;;;;;6185098;23;20091;-66
2022/11/12 08:56:53;;;;;;;41.30;21.13;;;;;;;;;;6186115;23;20033;-66
2022/11/12 08:59:19;;;;;;;41.30;21.13;;;;;;;;;;6186139;23;20048;-66
2022/11/12 09:01:45;;;;;;;43.00;21.83;;;;;;;;;;6159624;23;20020;-66
2022/11/12 09:04:11;;;;;;;41.92;21.08;;;;;;;;;;6159842;23;20016;-66
2022/11/12 09:06:37;;;;;;;41.95;20.95;;;;;;;;;;6186295;23;20079;-66
2022/11/12 09:09:03;;;;;;;43.58;21.42;;;;;;;;;;6184597;23;20017;-66
2022/11/12 09:11:29;;;;;;;39.97;20.45;;;;;;;;;;6184464;23;20455;-66
2022/11/12 09:13:55;;;;;;;46.58;21.73;;;;;;;;;;6186291;23;20039;-66
2022/11/12 09:16:23;;;;;;;40.70;19.63;;;;;;;;;;6184219;23;20021;-66
2022/11/12 09:18:49;;;;;;;43.08;21.45;;;;;;;;;;6211561;23;20103;-66
2022/11/12 09:21:16;;;;;;;39.33;20.58;;;;;;;;;;6219877;23;20407;-66
2022/11/12 09:23:42;;;;;;;38.75;19.52;;;;;;;;;;6220050;23;20438;-66
2022/11/12 09:26:08;;;;;;;42.65;22.00;;;;;;;;;;6169479;23;20058;-67
2022/11/12 09:28:34;;;;;;;48.80;21.23;;;;;;;;;;6194339;23;20074;-66
2022/11/12 09:31:01;;;;;;;38.85;20.92;;;;;;;;;;6219379;23;20342;-66
2022/11/12 09:33:30;;;;;;;45.08;21.08;;;;;;;;;;6194300;23;20092;-66
2022/11/12 09:35:56;;;;;;;44.40;20.70;;;;;;;;;;6246509;23;20020;-66
2022/11/12 09:38:22;;;;;;;47.78;21.15;;;;;;;;;;6219337;23;20042;-66
2022/11/12 09:40:56;;;;;;;45.83;21.13;;;;;;;;;;6246537;23;20402;-66
2022/11/12 09:43:49;;;;;;;42.40;21.80;;;;;;;;;;6219319;23;20453;-66
2022/11/12 09:46:37;;;;;;;41.40;21.77;;;9.00;99.90;;;;;;6240604;23;20460;-66
2022/11/12 09:49:10;;;;;;;44.60;20.30;;;;;;;;;;6193976;23;20016;-66
2022/11/12 09:51:38;;;;;;;46.60;21.52;;;;;;;;;;6219308;23;20012;-66
2022/11/12 09:54:14;;;;;;;44.13;19.52;;;;;;;;;;6219160;23;20016;-66
2022/11/12 09:56:40;;;;;;;38.13;20.23;;;;;;;;;;6246114;23;20050;-66
2022/11/12 09:59:11;;;;;;;47.95;20.40;;;;;;;;;;6245941;23;20504;-66
2022/11/12 10:01:57;;;;;;;41.88;20.02;;;;;;;;;;6219096;23;20020;-66
2022/11/12 10:04:23;;;;;;;40.78;20.30;;;;;;;;;;6218886;23;20047;-66
2022/11/12 10:06:49;;;;;;;38.00;18.98;;;;;;;;;;6219055;23;20019;-66
2022/11/12 10:09:19;;;;;;;35.50;18.13;;;;;;;;;;6219048;23;20020;-66
2022/11/12 10:18:00;;;;;;;37.75;18.02;;;;;;;;;;6200367;23;20393;-67
2022/11/12 10:20:31;;;;;;;49.10;19.13;;;;;;;;;;6219190;23;20062;-66
2022/11/12 10:23:09;;;;;;;39.13;19.20;;;;;;;;;;6219175;23;20082;-66
2022/11/12 10:25:35;;;;;;;37.08;19.00;;;;;;;;;;6218924;23;20027;-66
2022/11/12 10:28:08;;;;;;;39.63;18.55;;;;;;;;;;6246303;23;20008;-66
2022/11/12 10:30:35;;;;;;;40.70;20.13;;;;;;;;;;6218983;23;20016;-66
2022/11/12 10:33:02;;;;;;;52.33;19.90;;;;;;;;;;6218949;23;20020;-66
2022/11/12 10:35:28;;;;;;;42.38;20.00;;;;;;;;;;6218862;23;20083;-66
2022/11/12 10:37:58;;;;;;;38.67;19.35;;;;;;;;;;6219188;23;20024;-66
2022/11/12 10:40:27;;;;;;;45.63;20.30;;;;;;;;;;6218864;23;20046;-66
2022/11/12 10:42:58;;;;;;;42.92;21.65;;;;;;;;;;6218884;23;20027;-66
2022/11/12 10:45:24;;;;;;;50.83;21.40;;;;;;;;;;6218722;23;20098;-66
2022/11/12 10:47:50;;;;;;;44.47;21.60;;;;;;;;;;6219253;23;20450;-66
2022/11/12 10:50:27;;;;;;;39.33;20.17;;;;;;;;;;6218888;23;20012;-68
2022/11/12 10:52:58;;;;;;;46.83;22.05;;;;;;;;;;6245632;23;20382;-66
2022/11/12 10:55:24;;;;;;;45.03;20.83;;;;;;;;;;6245779;23;20119;-66
2022/11/12 10:58:02;;;;;;;45.97;22.48;;;;;;;;;;6218780;23;20070;-66
2022/11/12 11:00:28;;;;;;;42.75;20.13;;;;;;;;;;6218718;23;20012;-66
2022/11/12 11:02:55;;;;;;;46.53;20.30;;;;;;;;;;6245798;23;20038;-66
2022/11/12 11:05:30;;;;;;;40.22;19.88;;;;;;;;;;6218682;23;20016;-66
2022/11/12 11:07:57;;;;;;;46.70;21.95;;;;;;;;;;6218605;23;20069;-67
2022/11/12 11:10:23;;;;;;;45.80;21.75;;;;;;;;;;6218849;23;20050;-66
2022/11/12 11:12:51;;;;;;;50.30;22.27;;;;;;;;;;6218745;23;20024;-67
2022/11/12 11:15:22;;;;;;;51.80;23.30;;;;;;;;;;6193813;23;20489;-67
2022/11/12 11:17:48;;;;;;;54.17;23.30;;;;;;;;;;6220753;23;20391;-66
2022/11/12 11:20:25;;;;;;;57.10;25.83;;;;;;;;;;6220946;23;20024;-67
2022/11/12 11:23:06;;;;;;;56.70;24.77;;;;;;;;;;6247745;23;20016;-66
2022/11/12 11:25:34;;;;;;;52.75;24.13;;;;;;;;;;6220688;23;20078;-66
2022/11/12 11:28:11;;;;;;;52.28;22.95;;;;;;;;;;6220626;23;20016;-66
2022/11/12 11:30:44;;;;;;;45.75;20.63;;;;;;;;;;6220539;23;20468;-67
2022/11/12 11:33:13;;;;;;;57.33;23.83;;;;;;;;;;6220505;23;20014;-66
2022/11/12 11:35:52;;;;;;;57.95;24.95;;;;;;;;;;6220565;23;20087;-66
2022/11/12 11:38:38;;;;;;;62.58;25.60;;;;;;;;;;6220461;23;20016;-66
2022/11/12 11:41:07;;;;;;;61.42;26.27;;;;;;;;;;6247493;23;20070;-66
2022/11/12 11:43:42;;;;;;;65.25;27.83;;;;;;;;;;6220300;23;20430;-66
2022/11/12 11:46:11;;;;;;;58.92;25.85;;;;;;;;;;6220431;23;20087;-66
2022/11/12 11:49:10;;;;;;;66.35;26.67;;;;;;;;;;6220306;23;20016;-66
2022/11/12 11:51:51;;;;;;;67.68;27.23;;;;;;;;;;6155569;23;20012;-66
2022/11/12 11:54:26;;;;;;;64.85;27.77;;;;;;;;;;6220358;23;20015;-66
2022/11/12 11:56:56;;;;;;;63.33;27.75;;;;;;;;;;6220160;23;20062;-67
2022/11/12 11:59:22;;;;;;;65.38;27.08;;;;;;;;;;6220254;23;20020;-66
2022/11/12 12:01:51;;;;;;;61.30;26.85;;;;;;;;;;6220100;23;20020;-66
2022/11/12 12:04:30;;;;;;;69.88;27.88;;;;;;;;;;6247062;23;20442;-66
2022/11/12 12:06:59;;;;;;;66.53;28.48;;;;;;;;;;6220009;23;20016;-66
2022/11/12 12:09:25;;;;;;;69.25;29.23;;;;;;;;;;6220076;23;20016;-67
2022/11/12 12:11:51;;;;;;;72.72;30.25;;;;;;;;;;6195143;23;20022;-66
2022/11/12 12:14:55;;;;;;;74.53;32.05;;;9.60;99.90;;;;;;6247259;23;20330;-66
2022/11/12 12:17:46;;;;;;;70.57;31.02;;;9.60;99.90;;;;;;6219169;23;20032;-66
2022/11/12 12:20:18;;;;;;;74.32;31.70;;;;;;;;;;6247322;23;20018;-66
2022/11/12 12:22:57;;;;;;;71.55;31.15;;;;;;;;;;6220303;23;20095;-67
2022/11/12 12:25:31;;;;;;;71.28;33.05;;;;;;;;;;6247373;23;20015;-66
2022/11/12 12:28:00;;;;;;;70.78;31.98;;;;;;;;;;6219767;23;20012;-67
2022/11/12 12:30:28;;;;;;;83.22;33.03;;;;;;;;;;6220118;23;20024;-66
2022/11/12 12:33:04;;;;;;;82.30;35.08;;;;;;;;;;6219930;23;20016;-67
2022/11/12 12:35:32;;;;;;;72.32;32.10;;;;;;;;;;6246995;23;20433;-66
2022/11/12 12:38:06;;;;;;;85.80;34.58;;;;;;;;;;6219990;23;20012;-66
2022/11/12 12:40:38;;;;;;;78.65;34.13;;;;;;;;;;6220039;23;20051;-66
2022/11/12 12:43:19;;;;;;;72.30;31.60;;;;;;;;;;6219926;23;20031;-67
2022/11/12 12:45:46;;;;;;;85.57;35.45;;;;;;;;;;6219951;23;20016;-66
2022/11/12 12:48:18;;;;;;;88.90;35.08;;;;;;;;;;6246827;23;20012;-67
2022/11/12 12:50:45;;;;;;;86.18;36.80;;;;;;;;;;6219834;23;20016;-66
2022/11/12 12:53:14;;;;;;;83.15;36.67;;;;;;;;;;6246844;23;20016;-67
2022/11/12 12:55:48;;;;;;;75.38;34.75;;;;;;;;;;6219868;23;20342;-67
2022/11/12 12:58:15;;;;;;;78.10;35.67;;;;;;;;;;6220229;23;20023;-67
2022/11/12 13:00:46;;;;;;;83.43;38.15;;;;;;;;;;6246772;23;20435;-67
2022/11/12 13:03:12;;;;;;;86.43;37.45;;;;;;;;;;6247116;23;20008;-67
2022/11/12 13:05:41;;;;;;;89.45;35.90;;;;;;;;;;6194590;23;20036;-67
2022/11/12 13:08:10;;;;;;;84.03;37.08;;;;;;;;;;6219719;23;20500;-66
2022/11/12 13:10:36;;;;;;;91.22;37.70;;;;;;;;;;6219757;23;20016;-66
2022/11/12 13:13:25;;;;;;;83.88;36.13;;;;;;;;;;6219738;23;20460;-66
2022/11/12 13:15:53;;;;;;;88.38;39.55;;;;;;;;;;6231119;23;20016;-66
2022/11/12 13:18:37;;;;;;;94.82;40.03;;;;;;;;;;6246521;23;20020;-66
2022/11/12 13:21:08;;;;;;;92.43;39.08;;;;;;;;;;6219594;23;20012;-66
2022/11/12 13:26:38;;;;;;;85.60;38.50;;;;;;;;;;6219451;23;20104;-66
2022/11/12 13:29:38;;;;;;;87.03;37.65;;;;;;;;;;6219487;23;20462;-66
2022/11/12 13:32:22;;;;;;;95.28;39.22;;;;;;;;;;6155017;23;20050;-66
2022/11/12 13:34:48;;;;;;;91.32;39.00;;;;;;;;;;6219456;23;20026;-66
2022/11/12 13:37:19;;;;;;;95.13;36.95;;;;;;;;;;6219586;23;20024;-66
2022/11/12 13:39:45;;;;;;;94.18;39.95;;;;;;;;;;6218990;23;20115;-66
2022/11/12 13:44:59;;;;;;;87.68;38.38;;;;;;;;;;6219335;23;20350;-66
2022/11/12 13:47:28;;;;;;;88.18;37.65;;;;;;;;;;6245816;23;20020;-66
2022/11/12 13:49:55;;;;;;;84.93;38.08;;;;;;;;;;6195116;23;20335;-66
2022/11/12 13:52:21;;;;;;;85.47;38.30;;;;;;;;;;6219340;23;20012;-66
2022/11/12 13:55:00;;;;;;;81.38;36.92;;;;;;;;;;6219422;23;20012;-66
2022/11/12 13:57:27;;;;;;;93.22;40.90;;;;;;;;;;6219411;23;20020;-66
2022/11/12 14:00:12;;;;;;;98.65;39.97;;;;;;;;;;6219202;23;20386;-66
2022/11/12 14:02:39;;;;;;;80.38;36.15;;;;;;;;;;6219089;23;20446;-66
2022/11/12 14:05:12;;;;;;;86.20;37.95;;;;;;;;;;6246186;23;20016;-66
2022/11/12 14:07:51;;;;;;;85.43;37.95;;;;;;;;;;6219044;22;20083;-66
2022/11/12 14:10:17;;;;;;;86.50;38.03;;;;;;;;;;6245994;23;20456;-66
2022/11/12 14:12:44;;;;;;;87.07;38.15;;;;;;;;;;6246342;23;20087;-66
2022/11/12 14:15:10;;;;;;;82.82;37.45;;;;;;;;;;6194048;23;20020;-65
2022/11/12 14:17:45;;;;;;;85.57;39.15;;;;;;;;;;6245642;23;20032;-65
2022/11/12 14:20:26;;;;;;;80.38;37.78;;;;;;;;;;6245942;23;20044;-66
2022/11/12 14:22:52;;;;;;;87.43;38.10;;;;;;;;;;6246264;23;20087;-66
2022/11/12 14:25:20;;;;;;;77.47;36.17;;;;;;;;;;6169485;23;20017;-66
2022/11/12 14:27:47;;;;;;;72.88;34.28;;;;;;;;;;6246212;23;20091;-65
2022/11/12 14:30:15;;;;;;;66.38;33.45;;;;;;;;;;6245931;23;20016;-66
2022/11/12 14:32:42;;;;;;;69.32;34.22;;;;;;;;;;6246181;23;20023;-66
2022/11/12 14:35:17;;;;;;;68.15;33.38;;;;;;;;;;6219051;23;20087;-66
2022/11/12 14:37:48;;;;;;;65.43;33.92;;;;;;;;;;6219011;23;20026;-66
2022/11/12 14:40:15;;;;;;;61.90;32.53;;;;;;;;;;6245987;23;20374;-66
2022/11/12 14:42:41;;;;;;;66.35;32.88;;;;;;;;;;6246216;23;20014;-66
2022/11/12 14:45:14;;;;;;;61.22;31.45;;;;;;;;;;6219015;23;20016;-66
2022/11/12 14:47:40;;;;;;;60.00;31.67;;;;;;;;;;6218910;23;20068;-66
2022/11/12 14:50:08;;;;;;;58.88;32.13;;;;;;;;;;6219872;23;20013;-66
2022/11/12 14:52:37;;;;;;;60.90;32.40;;;;;;;;;;6248106;23;20320;-66
2022/11/12 14:55:10;;;;;;;63.63;31.73;;;;;;;;;;6221093;23;20044;-66
2022/11/12 14:57:36;;;;;;;57.83;31.25;;;;;;;;;;6247877;23;20048;-66
2022/11/12 15:00:16;;;;;;;59.58;31.98;;;;;;;;;;6220950;23;20016;-66